createdAt,value
2023-01-19T00:00:59.456Z,5.53
2023-01-19T00:03:28.123Z,5.32
2023-01-19T00:05:56.575Z,5.57
2023-01-19T00:08:24.933Z,4.82
2023-01-19T00:10:53.363Z,3.80
2023-01-19T00:13:21.767Z,4.80
2023-01-19T00:15:51.510Z,4.70
2023-01-19T00:18:20.018Z,4.05
2023-01-19T00:20:49.313Z,4.63
2023-01-19T00:23:17.784Z,4.05
2023-01-19T00:25:47.833Z,5.28
2023-01-19T00:28:17.807Z,4.55
2023-01-19T00:30:46.818Z,4.82
2023-01-19T00:33:16.523Z,5.25
2023-01-19T00:35:45.399Z,4.60
2023-01-19T00:38:13.779Z,4.38
2023-01-19T00:40:42.106Z,5.00
2023-01-19T00:43:10.480Z,4.15
2023-01-19T00:45:38.888Z,4.25
2023-01-19T00:48:07.602Z,4.28
2023-01-19T00:50:37.331Z,4.07
2023-01-19T00:53:05.703Z,5.00
2023-01-19T00:55:34.280Z,4.78
2023-01-19T00:58:03.534Z,4.50
2023-01-19T01:00:36.851Z,4.15
2023-01-19T01:03:05.618Z,4.47
2023-01-19T01:05:33.975Z,3.55
2023-01-19T01:08:03.695Z,4.30
2023-01-19T01:10:32.081Z,4.65
2023-01-19T01:13:19.893Z,4.50
2023-01-19T01:15:51.064Z,4.53
2023-01-19T01:18:19.582Z,4.55
2023-01-19T01:20:48.085Z,4.75
2023-01-19T01:23:23.200Z,4.70
2023-01-19T01:25:51.706Z,4.80
2023-01-19T01:28:20.145Z,4.53
2023-01-19T01:30:48.638Z,4.53
2023-01-19T01:33:39.780Z,4.57
2023-01-19T01:36:06.095Z,4.85
2023-01-19T01:38:35.804Z,4.47
2023-01-19T01:41:04.407Z,4.50
2023-01-19T01:43:45.324Z,4.57
2023-01-19T01:46:16.116Z,4.75
2023-01-19T01:48:50.760Z,4.93
2023-01-19T01:51:25.432Z,4.78
2023-01-19T01:54:06.943Z,4.70
2023-01-19T01:56:38.568Z,5.68
2023-01-19T01:59:10.376Z,4.93
2023-01-19T02:01:56.449Z,4.50
2023-01-19T02:04:25.350Z,4.30
2023-01-19T02:07:11.540Z,5.20
2023-01-19T02:15:22.408Z,4.28
2023-01-19T02:17:51.028Z,4.60
2023-01-19T02:20:21.679Z,4.88
2023-01-19T02:22:52.194Z,4.22
2023-01-19T02:25:22.060Z,4.35
2023-01-19T02:27:51.514Z,4.50
2023-01-19T02:30:20.301Z,5.05
2023-01-19T02:32:48.646Z,4.82
2023-01-19T02:35:18.704Z,4.97
2023-01-19T02:37:47.924Z,4.97
2023-01-19T02:40:20.713Z,4.90
2023-01-19T02:42:53.034Z,4.75
2023-01-19T02:45:23.576Z,4.70
2023-01-19T02:47:53.314Z,5.05
2023-01-19T02:50:38.123Z,4.65
2023-01-19T02:53:26.096Z,3.88
2023-01-19T02:55:59.495Z,5.93
2023-01-19T02:58:35.746Z,4.75
2023-01-19T03:01:14.043Z,4.13
2023-01-19T03:03:55.621Z,5.80
2023-01-19T03:06:38.851Z,4.65
2023-01-19T03:09:15.403Z,4.93
2023-01-19T03:11:51.168Z,5.05
2023-01-19T03:14:24.200Z,5.07
2023-01-19T03:16:56.951Z,3.45
2023-01-19T03:19:29.313Z,5.68
2023-01-19T03:22:00.096Z,4.90
2023-01-19T03:24:32.261Z,4.18
2023-01-19T03:27:04.713Z,3.92
2023-01-19T03:29:36.105Z,4.85
2023-01-19T03:32:10.421Z,4.70
2023-01-19T03:34:41.056Z,3.85
2023-01-19T03:37:12.300Z,4.85
2023-01-19T03:39:41.160Z,4.70
2023-01-19T03:42:13.513Z,4.63
2023-01-19T03:44:45.158Z,4.45
2023-01-19T03:47:15.660Z,4.75
2023-01-19T03:49:46.763Z,5.05
2023-01-19T03:52:15.165Z,4.78
2023-01-19T03:54:43.910Z,4.38
2023-01-19T03:57:12.811Z,4.75
2023-01-19T03:59:42.737Z,4.43
2023-01-19T04:02:11.225Z,5.10
2023-01-19T04:04:40.061Z,4.13
2023-01-19T04:07:10.703Z,4.00
2023-01-19T04:09:39.058Z,4.47
2023-01-19T04:12:07.772Z,4.43
2023-01-19T04:14:36.114Z,4.60
2023-01-19T04:17:05.839Z,4.15
2023-01-19T04:19:34.146Z,4.18
2023-01-19T04:22:02.626Z,4.18
2023-01-19T04:24:31.027Z,4.10
2023-01-19T04:26:59.444Z,4.43
2023-01-19T04:29:27.774Z,4.78
2023-01-19T04:31:56.085Z,5.18
2023-01-19T04:34:25.905Z,4.13
2023-01-19T04:36:55.884Z,3.38
2023-01-19T04:39:24.239Z,4.68
2023-01-19T04:41:52.809Z,4.80
2023-01-19T04:44:21.182Z,3.97
2023-01-19T04:46:49.657Z,5.38
2023-01-19T04:49:18.284Z,5.40
2023-01-19T04:51:48.470Z,4.40
2023-01-19T04:54:16.983Z,4.55
2023-01-19T04:56:45.325Z,4.95
2023-01-19T04:59:14.335Z,4.60
2023-01-19T05:01:42.786Z,4.78
2023-01-19T05:04:11.127Z,4.68
2023-01-19T05:06:39.589Z,4.78
2023-01-19T05:09:11.643Z,5.18
2023-01-19T05:11:40.191Z,5.13
2023-01-19T05:14:08.530Z,5.70
2023-01-19T05:16:36.873Z,4.55
2023-01-19T05:19:05.246Z,5.05
2023-01-19T05:21:33.600Z,4.55
2023-01-19T05:24:01.916Z,5.85
2023-01-19T05:26:31.592Z,5.43
2023-01-19T05:28:59.962Z,5.38
2023-01-19T05:31:28.512Z,5.10
2023-01-19T05:33:56.919Z,5.47
2023-01-19T05:36:25.234Z,5.72
2023-01-19T05:38:53.786Z,5.40
2023-01-19T05:41:22.166Z,4.97
2023-01-19T05:43:51.889Z,5.32
2023-01-19T05:46:20.335Z,4.80
2023-01-19T05:48:48.798Z,5.18
2023-01-19T05:51:18.164Z,6.10
2023-01-19T05:53:46.821Z,5.93
2023-01-19T05:56:15.146Z,5.97
2023-01-19T05:58:43.503Z,5.75
2023-01-19T06:01:13.664Z,6.18
2023-01-19T06:03:42.420Z,5.40
2023-01-19T06:06:11.519Z,5.47
2023-01-19T06:08:40.411Z,6.18
2023-01-19T06:11:09.052Z,5.88
2023-01-19T06:13:41.269Z,5.47
2023-01-19T06:16:11.570Z,5.88
2023-01-19T06:18:41.940Z,6.57
2023-01-19T06:21:13.552Z,6.00
2023-01-19T06:23:42.258Z,6.97
2023-01-19T06:26:10.783Z,6.25
2023-01-19T06:28:39.168Z,6.75
2023-01-19T06:31:07.542Z,6.32
2023-01-19T06:33:35.941Z,6.43
2023-01-19T06:36:06.526Z,6.70
2023-01-19T06:38:35.119Z,6.07
2023-01-19T06:41:03.555Z,7.30
2023-01-19T06:43:32.459Z,6.45
2023-01-19T06:46:01.687Z,6.82
2023-01-19T06:48:30.214Z,6.90
2023-01-19T06:50:59.797Z,7.50
2023-01-19T06:53:30.145Z,6.30
2023-01-19T06:56:03.388Z,6.35
2023-01-19T06:58:34.739Z,6.32
2023-01-19T07:01:03.718Z,6.18
2023-01-19T07:03:32.834Z,7.68
2023-01-19T07:06:02.688Z,7.88
2023-01-19T07:08:32.576Z,7.03
2023-01-19T07:11:24.755Z,7.68
2023-01-19T07:13:51.563Z,7.55
2023-01-19T07:16:20.007Z,6.88
2023-01-19T07:18:49.210Z,6.60
2023-01-19T07:21:17.779Z,8.07
2023-01-19T07:23:49.243Z,8.10
2023-01-19T07:26:19.777Z,7.30
2023-01-19T07:28:48.807Z,8.52
2023-01-19T07:31:18.223Z,7.70
2023-01-19T07:33:46.993Z,9.18
2023-01-19T07:36:16.027Z,8.45
2023-01-19T07:38:44.581Z,8.27
2023-01-19T07:41:14.367Z,7.55
2023-01-19T07:43:42.816Z,7.90
2023-01-19T07:46:11.168Z,8.10
2023-01-19T07:48:39.552Z,8.32
2023-01-19T07:51:13.077Z,7.72
2023-01-19T07:53:42.207Z,7.93
2023-01-19T07:56:11.578Z,6.45
2023-01-19T07:58:41.304Z,8.30
2023-01-19T08:01:11.374Z,7.70
2023-01-19T08:03:40.369Z,8.25
2023-01-19T08:06:08.829Z,8.40
2023-01-19T08:08:37.666Z,8.65
2023-01-19T08:11:06.340Z,8.93
2023-01-19T08:13:34.660Z,7.82
2023-01-19T08:16:04.855Z,8.25
2023-01-19T08:18:33.257Z,6.70
2023-01-19T08:21:01.595Z,7.43
2023-01-19T08:23:30.081Z,8.23
2023-01-19T08:25:58.404Z,8.52
2023-01-19T08:28:26.874Z,8.68
2023-01-19T08:30:55.419Z,8.68
2023-01-19T08:33:25.648Z,8.35
2023-01-19T08:35:54.937Z,8.90
2023-01-19T08:38:24.833Z,9.27
2023-01-19T08:40:53.242Z,8.77
2023-01-19T08:43:21.560Z,8.07
2023-01-19T08:45:52.622Z,7.88
2023-01-19T08:48:25.324Z,9.63
2023-01-19T08:50:53.938Z,8.65
2023-01-19T08:53:24.060Z,8.25
2023-01-19T08:55:57.306Z,8.60
2023-01-19T08:58:25.645Z,8.25
2023-01-19T09:00:54.235Z,7.95
2023-01-19T09:03:23.562Z,8.43
2023-01-19T09:05:53.304Z,8.68
2023-01-19T09:08:21.636Z,8.27
2023-01-19T09:10:52.288Z,8.75
2023-01-19T09:13:21.081Z,7.88
2023-01-19T09:15:49.707Z,8.13
2023-01-19T09:18:20.581Z,7.80
2023-01-19T09:20:50.603Z,7.95
2023-01-19T09:23:22.566Z,8.45
2023-01-19T09:25:57.612Z,8.23
2023-01-19T09:28:26.793Z,8.20
2023-01-19T09:30:55.339Z,8.15
2023-01-19T09:33:24.513Z,8.48
2023-01-19T09:35:53.075Z,8.57
2023-01-19T09:38:23.865Z,8.35
2023-01-19T09:40:54.963Z,7.25
2023-01-19T09:43:34.922Z,7.45
2023-01-19T09:46:06.633Z,7.70
2023-01-19T09:48:45.631Z,7.63
2023-01-19T09:51:17.885Z,7.07
2023-01-19T09:53:55.385Z,7.07
2023-01-19T09:56:25.062Z,7.72
2023-01-19T09:58:53.960Z,7.43
2023-01-19T10:01:36.093Z,8.10
2023-01-19T10:04:27.690Z,7.43
2023-01-19T10:07:06.411Z,6.78
2023-01-19T10:09:43.603Z,7.47
2023-01-19T10:12:19.908Z,7.63
2023-01-19T10:14:55.059Z,7.40
2023-01-19T10:17:38.099Z,6.45
2023-01-19T10:20:17.849Z,7.45
2023-01-19T10:22:49.795Z,7.15
2023-01-19T10:25:23.648Z,7.20
2023-01-19T10:27:52.510Z,7.95
2023-01-19T10:30:24.349Z,7.78
2023-01-19T10:32:53.492Z,7.22
2023-01-19T10:35:25.002Z,8.20
2023-01-19T10:37:57.116Z,8.15
2023-01-19T10:40:34.603Z,8.32
2023-01-19T10:43:03.761Z,7.82
2023-01-19T10:45:32.684Z,7.80
2023-01-19T10:48:07.160Z,8.05
2023-01-19T10:50:39.916Z,7.68
2023-01-19T10:53:21.723Z,8.13
2023-01-19T10:56:18.693Z,7.82
2023-01-19T10:58:47.389Z,6.88
2023-01-19T11:01:18.574Z,7.82
2023-01-19T11:03:47.201Z,7.13
2023-01-19T11:06:27.973Z,7.47
2023-01-19T11:09:12.592Z,7.72
2023-01-19T11:11:55.587Z,7.65
2023-01-19T11:14:30.673Z,8.57
2023-01-19T11:16:59.883Z,8.60
2023-01-19T11:19:31.061Z,6.88
2023-01-19T11:22:21.541Z,6.93
2023-01-19T11:24:50.683Z,7.20
2023-01-19T11:27:21.768Z,7.70
2023-01-19T11:29:59.014Z,7.38
2023-01-19T11:32:29.016Z,7.47
2023-01-19T11:34:57.823Z,7.40
2023-01-19T11:37:34.346Z,6.60
2023-01-19T11:40:16.032Z,7.28
2023-01-19T11:42:46.545Z,6.50
2023-01-19T11:45:18.669Z,7.15
2023-01-19T11:47:49.576Z,6.43
2023-01-19T11:50:27.655Z,7.03
2023-01-19T11:53:00.695Z,7.18
2023-01-19T11:55:37.743Z,6.68
2023-01-19T11:58:18.330Z,5.95
2023-01-19T12:00:51.282Z,6.57
2023-01-19T12:03:25.491Z,6.97
2023-01-19T12:06:08.452Z,6.20
2023-01-19T12:08:41.175Z,6.05
2023-01-19T12:11:15.803Z,5.75
2023-01-19T12:13:48.511Z,6.53
2023-01-19T12:16:22.821Z,5.90
2023-01-19T12:18:55.721Z,6.00
2023-01-19T12:21:24.089Z,6.80
2023-01-19T12:24:13.048Z,5.70
2023-01-19T12:26:49.477Z,6.47
2023-01-19T12:29:22.632Z,5.88
2023-01-19T12:32:18.709Z,6.05
2023-01-19T12:34:48.209Z,5.45
2023-01-19T12:37:45.325Z,5.93
2023-01-19T12:40:30.151Z,5.28
2023-01-19T12:43:01.850Z,5.78
2023-01-19T12:45:35.689Z,6.35
2023-01-19T12:48:05.286Z,5.43
2023-01-19T12:50:38.290Z,6.10
2023-01-19T12:53:20.663Z,5.38
2023-01-19T12:56:00.129Z,5.90
2023-01-19T12:58:28.797Z,5.30
2023-01-19T13:01:15.323Z,5.05
2023-01-19T13:04:03.725Z,5.50
2023-01-19T13:07:10.404Z,4.90
2023-01-19T13:09:39.963Z,5.40
2023-01-19T13:12:20.126Z,4.82
2023-01-19T13:14:52.589Z,4.68
2023-01-19T13:17:33.471Z,4.68
2023-01-19T13:20:35.711Z,4.60
2023-01-19T13:23:19.018Z,3.97
2023-01-19T13:25:58.598Z,5.47
2023-01-19T13:28:33.617Z,3.90
2023-01-19T13:31:03.797Z,4.22
2023-01-19T13:33:41.307Z,4.65
2023-01-19T13:36:21.397Z,4.00
2023-01-19T13:38:52.134Z,4.78
2023-01-19T13:41:25.151Z,4.60
2023-01-19T13:44:02.707Z,4.10
2023-01-19T13:46:38.466Z,4.50
2023-01-19T13:49:19.110Z,4.15
2023-01-19T13:51:53.121Z,4.57
2023-01-19T13:54:25.922Z,5.00
2023-01-19T13:56:55.031Z,4.57
2023-01-19T13:59:23.548Z,4.43
2023-01-19T14:01:54.143Z,4.10
2023-01-19T14:04:29.601Z,5.07
2023-01-19T14:07:01.830Z,4.78
2023-01-19T14:09:30.317Z,5.30
2023-01-19T14:12:25.687Z,4.63
2023-01-19T14:14:54.183Z,4.50
2023-01-19T14:17:27.846Z,4.05
2023-01-19T14:20:05.622Z,4.18
2023-01-19T14:22:39.869Z,5.03
2023-01-19T14:25:31.148Z,4.90
2023-01-19T14:28:28.385Z,4.85
2023-01-19T14:31:00.812Z,4.38
2023-01-19T14:33:46.969Z,4.68
2023-01-19T14:36:41.930Z,4.22
2023-01-19T14:39:24.436Z,4.72
2023-01-19T14:41:54.414Z,3.88
2023-01-19T14:44:29.733Z,4.82
2023-01-19T14:47:03.093Z,4.70
2023-01-19T14:49:36.804Z,4.15
2023-01-19T14:52:17.891Z,4.00
2023-01-19T14:54:47.499Z,4.30
2023-01-19T14:57:16.361Z,3.40
2023-01-19T14:59:49.504Z,3.42
2023-01-19T15:02:19.415Z,4.00
2023-01-19T15:04:48.816Z,3.55
2023-01-19T15:07:26.366Z,3.50
2023-01-19T15:10:00.192Z,3.15
2023-01-19T15:12:29.908Z,3.22
2023-01-19T15:14:58.329Z,3.13
2023-01-19T15:17:30.429Z,3.13
2023-01-19T15:19:58.781Z,3.33
2023-01-19T15:22:29.870Z,3.33
2023-01-19T15:24:59.952Z,3.08
2023-01-19T15:27:28.596Z,3.58
2023-01-19T15:30:01.987Z,2.90
2023-01-19T15:32:30.626Z,2.95
2023-01-19T15:34:59.079Z,3.75
2023-01-19T15:37:28.748Z,3.80
2023-01-19T15:40:01.372Z,3.13
2023-01-19T15:42:29.838Z,4.20
2023-01-19T15:44:58.205Z,3.05
2023-01-19T15:47:26.601Z,3.22
2023-01-19T15:49:55.015Z,3.22
2023-01-19T15:52:26.207Z,3.40
2023-01-19T15:54:55.899Z,3.40
2023-01-19T15:57:24.355Z,3.60
2023-01-19T15:59:53.278Z,3.30
2023-01-19T16:02:21.905Z,3.30
2023-01-19T16:04:50.591Z,3.13
2023-01-19T16:07:19.363Z,3.35
2023-01-19T16:09:48.081Z,3.58
2023-01-19T16:12:17.820Z,3.22
2023-01-19T16:14:46.259Z,2.85
2023-01-19T16:17:14.644Z,3.17
2023-01-19T16:19:43.172Z,3.13
2023-01-19T16:22:12.148Z,3.10
2023-01-19T16:24:40.699Z,2.83
2023-01-19T16:27:09.345Z,3.05
2023-01-19T16:29:39.060Z,3.05
2023-01-19T16:32:07.730Z,3.17
2023-01-19T16:34:36.889Z,2.83
2023-01-19T16:37:06.252Z,2.60
2023-01-19T16:39:34.976Z,2.92
2023-01-19T16:42:06.077Z,3.00
2023-01-19T16:44:36.083Z,2.80
2023-01-19T16:47:05.891Z,2.95
2023-01-19T16:49:34.293Z,2.90
2023-01-19T16:52:03.790Z,3.00
2023-01-19T16:54:32.823Z,3.08
2023-01-19T16:57:01.773Z,3.47
2023-01-19T16:59:30.177Z,3.20
2023-01-19T17:01:58.746Z,3.30
2023-01-19T17:04:29.435Z,3.03
2023-01-19T17:06:57.991Z,2.95
2023-01-19T17:09:26.380Z,2.75
2023-01-19T17:11:54.711Z,3.33
2023-01-19T17:14:23.171Z,2.60
2023-01-19T17:16:51.581Z,2.67
2023-01-19T17:19:22.075Z,2.67
2023-01-19T17:21:54.937Z,2.45
2023-01-19T17:24:23.688Z,3.30
2023-01-19T17:26:52.137Z,3.05
2023-01-19T17:29:20.455Z,2.83
2023-01-19T17:31:51.195Z,2.95
2023-01-19T17:34:19.592Z,2.72
2023-01-19T17:36:47.996Z,2.97
2023-01-19T17:39:18.421Z,2.70
2023-01-19T17:41:48.303Z,2.90
2023-01-19T17:44:18.533Z,3.38
2023-01-19T17:46:50.987Z,2.97
2023-01-19T17:49:19.621Z,3.10
2023-01-19T17:51:51.744Z,2.97
2023-01-19T17:54:21.557Z,2.65
2023-01-19T17:56:50.867Z,2.67
2023-01-19T17:59:19.272Z,3.28
2023-01-19T18:01:47.744Z,3.95
2023-01-19T18:04:16.164Z,3.78
2023-01-19T18:06:46.995Z,3.30
2023-01-19T18:09:15.343Z,3.20
2023-01-19T18:11:45.255Z,3.50
2023-01-19T18:14:13.601Z,3.97
2023-01-19T18:16:42.096Z,3.63
2023-01-19T18:19:10.655Z,3.65
2023-01-19T18:21:39.101Z,4.38
2023-01-19T18:24:07.996Z,4.78
2023-01-19T18:26:37.529Z,5.00
2023-01-19T18:29:07.340Z,4.55
2023-01-19T18:31:35.863Z,4.40
2023-01-19T18:34:04.572Z,3.80
2023-01-19T18:36:34.121Z,3.90
2023-01-19T18:39:02.578Z,4.10
2023-01-19T18:41:31.519Z,3.20
2023-01-19T18:44:00.317Z,4.20
2023-01-19T18:46:30.120Z,3.80
2023-01-19T18:48:58.623Z,4.10
2023-01-19T18:51:27.053Z,4.05
2023-01-19T18:53:55.687Z,3.80
2023-01-19T18:56:24.403Z,4.70
2023-01-19T18:58:53.208Z,5.60
2023-01-19T19:01:24.648Z,4.63
2023-01-19T19:03:55.690Z,4.93
2023-01-19T19:06:26.920Z,4.53
2023-01-19T19:08:56.887Z,4.20
2023-01-19T19:11:26.370Z,4.88
2023-01-19T19:13:55.425Z,4.22
2023-01-19T19:16:23.970Z,4.75
2023-01-19T19:18:53.879Z,7.05
2023-01-19T19:21:25.083Z,6.00
2023-01-19T19:23:54.445Z,4.95
2023-01-19T19:26:23.709Z,4.25
2023-01-19T19:28:52.177Z,4.35
2023-01-19T19:31:22.768Z,4.38
2023-01-19T19:33:51.819Z,4.45
2023-01-19T19:36:22.134Z,4.03
2023-01-19T19:38:51.340Z,4.10
2023-01-19T19:41:21.847Z,4.70
2023-01-19T19:43:50.714Z,4.47
2023-01-19T19:46:20.828Z,4.18
2023-01-19T19:48:52.228Z,4.75
2023-01-19T19:51:25.263Z,4.45
2023-01-19T19:53:54.564Z,4.90
2023-01-19T19:56:24.627Z,5.28
2023-01-19T19:58:55.858Z,4.85
2023-01-19T20:01:28.559Z,4.75
2023-01-19T20:03:59.849Z,4.82
2023-01-19T20:06:29.889Z,4.70
2023-01-19T20:08:58.263Z,4.80
2023-01-19T20:11:30.882Z,4.70
2023-01-19T20:13:59.514Z,4.95
2023-01-19T20:16:28.285Z,5.20
2023-01-19T20:18:56.764Z,4.65
2023-01-19T20:21:27.086Z,5.28
2023-01-19T20:24:00.188Z,5.40
2023-01-19T20:26:31.873Z,4.50
2023-01-19T20:29:05.783Z,5.78
2023-01-19T20:31:36.535Z,4.68
2023-01-19T20:34:07.626Z,4.70
2023-01-19T20:36:37.523Z,5.13
2023-01-19T20:39:10.964Z,4.55
2023-01-19T20:41:44.996Z,5.50
2023-01-19T20:44:14.628Z,4.68
2023-01-19T20:46:43.473Z,4.85
2023-01-19T20:49:11.940Z,4.53
2023-01-19T20:51:43.228Z,4.72
2023-01-19T20:54:14.903Z,4.72
2023-01-19T20:56:44.197Z,5.75
2023-01-19T20:59:13.559Z,4.65
2023-01-19T21:01:42.905Z,4.63
2023-01-19T21:04:12.131Z,5.38
2023-01-19T21:06:41.217Z,4.53
2023-01-19T21:09:11.132Z,5.38
2023-01-19T21:11:41.087Z,4.82
2023-01-19T21:14:09.417Z,5.30
2023-01-19T21:16:38.920Z,5.50
2023-01-19T21:19:07.795Z,4.85
2023-01-19T21:21:36.214Z,5.45
2023-01-19T21:24:05.227Z,5.30
2023-01-19T21:26:34.245Z,5.13
2023-01-19T21:29:04.724Z,5.28
2023-01-19T21:31:33.140Z,4.93
2023-01-19T21:34:01.635Z,5.25
2023-01-19T21:36:29.981Z,5.68
2023-01-19T21:39:00.596Z,5.38
2023-01-19T21:41:30.343Z,5.75
2023-01-19T21:44:00.547Z,5.57
2023-01-19T21:46:32.607Z,5.55
2023-01-19T21:49:02.566Z,6.18
2023-01-19T21:51:33.312Z,5.97
2023-01-19T21:54:02.613Z,6.47
2023-01-19T21:56:34.522Z,6.07
2023-01-19T21:59:03.445Z,6.22
2023-01-19T22:01:34.569Z,5.75
2023-01-19T22:04:03.088Z,6.32
2023-01-19T22:06:31.544Z,6.00
2023-01-19T22:09:00.611Z,5.88
2023-01-19T22:11:29.959Z,6.30
2023-01-19T22:13:59.627Z,5.90
2023-01-19T22:16:29.413Z,6.95
2023-01-19T22:19:01.799Z,5.68
2023-01-19T22:21:31.919Z,6.80
2023-01-19T22:24:01.878Z,6.45
2023-01-19T22:26:31.654Z,6.97
2023-01-19T22:29:01.752Z,6.65
2023-01-19T22:31:31.391Z,6.63
2023-01-19T22:34:01.237Z,6.25
2023-01-19T22:36:31.616Z,6.72
2023-01-19T22:39:01.679Z,6.82
2023-01-19T22:41:31.760Z,6.78
2023-01-19T22:44:02.294Z,6.60
2023-01-19T22:46:32.655Z,6.95
2023-01-19T22:49:03.099Z,7.13
2023-01-19T22:51:33.078Z,7.05
2023-01-19T22:54:02.073Z,7.47
2023-01-19T22:56:32.258Z,7.40
2023-01-19T22:59:01.621Z,6.50
2023-01-19T23:01:33.487Z,7.07
2023-01-19T23:04:05.375Z,6.55
2023-01-19T23:06:36.048Z,5.97
2023-01-19T23:09:06.058Z,7.20
2023-01-19T23:11:36.423Z,6.40
2023-01-19T23:14:06.284Z,6.68
2023-01-19T23:16:35.563Z,8.05
2023-01-19T23:19:05.998Z,6.25
2023-01-19T23:21:35.097Z,6.45
2023-01-19T23:24:05.457Z,6.55
2023-01-19T23:26:38.009Z,6.13
2023-01-19T23:29:08.577Z,6.43
2023-01-19T23:31:38.902Z,6.70
2023-01-19T23:34:10.417Z,7.22
2023-01-19T23:36:40.654Z,6.60
2023-01-19T23:39:14.382Z,5.90
2023-01-19T23:41:42.836Z,6.63
2023-01-19T23:44:11.386Z,6.88
2023-01-19T23:46:43.807Z,7.05
2023-01-19T23:49:13.794Z,6.93
2023-01-19T23:51:42.540Z,6.43
2023-01-19T23:54:12.141Z,6.72
2023-01-19T23:56:42.452Z,6.50
2023-01-19T23:59:12.754Z,6.70
